createdAt,value
2018-09-03T00:00:15.259Z,4.07
2018-09-03T00:02:42.845Z,4.23
2018-09-03T00:05:10.369Z,4.20
2018-09-03T00:07:37.898Z,4.40
2018-09-03T00:10:09.021Z,3.87
2018-09-03T00:12:36.578Z,4.30
2018-09-03T00:15:04.214Z,4.27
2018-09-03T00:17:31.842Z,4.20
2018-09-03T00:20:01.306Z,3.93
2018-09-03T00:22:28.825Z,4.13
2018-09-03T00:24:56.552Z,4.00
2018-09-03T00:27:30.682Z,4.23
2018-09-03T00:29:58.425Z,4.10
2018-09-03T00:32:42.817Z,4.30
2018-09-03T00:35:16.048Z,4.43
2018-09-03T00:37:59.591Z,4.17
2018-09-03T00:40:46.056Z,4.67
2018-09-03T00:43:29.453Z,4.13
2018-09-03T00:46:22.504Z,3.83
2018-09-03T00:48:50.075Z,3.97
2018-09-03T00:51:17.594Z,4.50
2018-09-03T00:53:45.168Z,4.17
2018-09-03T00:56:12.734Z,4.03
2018-09-03T00:58:40.263Z,4.23
2018-09-03T01:01:07.819Z,4.10
2018-09-03T01:03:35.385Z,3.93
2018-09-03T01:06:02.959Z,4.20
2018-09-03T01:08:30.554Z,4.13
2018-09-03T01:10:58.134Z,4.40
2018-09-03T01:13:25.655Z,4.45
2018-09-03T01:15:53.214Z,4.47
2018-09-03T01:18:20.777Z,4.50
2018-09-03T01:20:48.382Z,4.70
2018-09-03T01:23:15.941Z,4.10
2018-09-03T01:25:43.482Z,4.23
2018-09-03T01:28:11.053Z,4.37
2018-09-03T01:30:38.570Z,4.03
2018-09-03T01:33:06.486Z,4.33
2018-09-03T01:35:33.986Z,4.50
2018-09-03T01:38:01.578Z,4.10
2018-09-03T01:40:29.101Z,4.27
2018-09-03T01:42:56.663Z,4.83
2018-09-03T01:45:24.175Z,4.33
2018-09-03T01:47:57.671Z,4.43
2018-09-03T01:50:25.196Z,4.73
2018-09-03T01:52:52.767Z,4.63
2018-09-03T01:55:20.323Z,4.40
2018-09-03T01:57:48.051Z,4.53
2018-09-03T02:00:15.832Z,4.57
2018-09-03T02:02:44.483Z,4.53
2018-09-03T02:05:12.074Z,4.40
2018-09-03T02:07:39.624Z,4.60
2018-09-03T02:10:07.134Z,4.80
2018-09-03T02:12:34.683Z,4.20
2018-09-03T02:15:08.539Z,4.40
2018-09-03T02:17:36.074Z,4.60
2018-09-03T02:20:03.755Z,4.27
2018-09-03T02:22:31.355Z,5.53
2018-09-03T02:24:58.862Z,6.20
2018-09-03T02:27:26.438Z,4.83
2018-09-03T02:29:53.979Z,5.13
2018-09-03T02:32:21.552Z,4.93
2018-09-03T02:34:50.044Z,4.80
2018-09-03T02:37:17.628Z,4.67
2018-09-03T02:39:45.162Z,4.47
2018-09-03T02:42:12.747Z,4.73
2018-09-03T02:44:42.336Z,4.33
2018-09-03T02:47:09.876Z,4.90
2018-09-03T02:49:37.459Z,4.60
2018-09-03T02:52:04.981Z,4.73
2018-09-03T02:54:32.556Z,4.70
2018-09-03T02:57:00.074Z,4.57
2018-09-03T02:59:27.748Z,4.40
2018-09-03T03:01:55.286Z,4.20
2018-09-03T03:04:22.845Z,4.30
2018-09-03T03:06:50.433Z,4.37
2018-09-03T03:09:17.940Z,3.97
2018-09-03T03:11:45.567Z,4.72
2018-09-03T03:14:13.094Z,4.43
2018-09-03T03:16:40.643Z,4.33
2018-09-03T03:19:08.231Z,4.63
2018-09-03T03:21:35.735Z,4.77
2018-09-03T03:24:03.296Z,4.20
2018-09-03T03:26:30.837Z,4.23
2018-09-03T03:28:58.421Z,4.97
2018-09-03T03:31:25.937Z,5.10
2018-09-03T03:33:53.477Z,5.20
2018-09-03T03:36:23.032Z,4.72
2018-09-03T03:38:50.594Z,5.18
2018-09-03T03:41:19.159Z,5.00
2018-09-03T03:43:46.746Z,4.17
2018-09-03T03:46:14.294Z,4.70
2018-09-03T03:48:41.963Z,4.70
2018-09-03T03:51:09.616Z,4.67
2018-09-03T03:53:37.192Z,4.53
2018-09-03T03:56:04.699Z,4.73
2018-09-03T03:58:33.209Z,4.27
2018-09-03T04:01:00.801Z,4.60
2018-09-03T04:03:28.342Z,4.53
2018-09-03T04:05:55.914Z,4.63
2018-09-03T04:08:23.472Z,4.53
2018-09-03T04:10:51.036Z,4.93
2018-09-03T04:13:18.561Z,4.97
2018-09-03T04:15:46.146Z,4.90
2018-09-03T04:18:14.683Z,4.60
2018-09-03T04:20:42.248Z,4.70
2018-09-03T04:23:09.857Z,5.10
2018-09-03T04:25:37.406Z,4.17
2018-09-03T04:28:04.969Z,4.83
2018-09-03T04:30:32.508Z,4.70
2018-09-03T04:33:00.087Z,4.73
2018-09-03T04:35:27.654Z,4.70
2018-09-03T04:37:55.221Z,5.43
2018-09-03T04:40:22.745Z,4.97
2018-09-03T04:42:50.319Z,4.80
2018-09-03T04:45:17.845Z,5.20
2018-09-03T04:47:45.471Z,4.70
2018-09-03T04:50:13.041Z,4.57
2018-09-03T04:52:40.592Z,4.83
2018-09-03T04:55:08.156Z,4.90
2018-09-03T04:57:35.696Z,4.87
2018-09-03T05:00:03.455Z,5.67
2018-09-03T05:02:30.982Z,5.07
2018-09-03T05:04:58.557Z,4.90
2018-09-03T05:07:26.077Z,4.87
2018-09-03T05:09:53.683Z,5.20
2018-09-03T05:12:21.220Z,5.43
2018-09-03T05:14:48.779Z,5.30
2018-09-03T05:17:16.344Z,5.20
2018-09-03T05:19:43.878Z,6.00
2018-09-03T05:22:11.401Z,5.63
2018-09-03T05:24:40.106Z,5.33
2018-09-03T05:27:07.676Z,5.13
2018-09-03T05:29:35.259Z,5.10
2018-09-03T05:32:02.824Z,5.07
2018-09-03T05:34:30.392Z,4.53
2018-09-03T05:36:57.978Z,4.67
2018-09-03T05:39:25.523Z,4.37
2018-09-03T05:41:55.098Z,4.53
2018-09-03T05:44:22.611Z,4.77
2018-09-03T05:46:50.177Z,4.70
2018-09-03T05:49:17.743Z,6.00
2018-09-03T05:51:46.446Z,5.37
2018-09-03T05:54:13.951Z,4.83
2018-09-03T05:56:41.515Z,5.22
2018-09-03T05:59:09.160Z,5.70
2018-09-03T06:01:36.699Z,4.90
2018-09-03T06:04:04.225Z,4.67
2018-09-03T06:06:31.812Z,5.53
2018-09-03T06:08:59.407Z,4.73
2018-09-03T06:11:28.902Z,4.80
2018-09-03T06:13:59.767Z,4.70
2018-09-03T06:16:29.354Z,5.22
2018-09-03T06:18:56.876Z,4.70
2018-09-03T06:21:24.446Z,4.97
2018-09-03T06:23:52.008Z,4.73
2018-09-03T06:26:19.568Z,4.97
2018-09-03T06:28:47.241Z,4.97
2018-09-03T06:31:14.772Z,5.30
2018-09-03T06:33:42.345Z,4.83
2018-09-03T06:36:09.851Z,4.77
2018-09-03T06:38:37.381Z,4.80
2018-09-03T06:41:05.883Z,5.03
2018-09-03T06:43:33.468Z,4.87
2018-09-03T06:46:01.057Z,5.80
2018-09-03T06:48:29.662Z,5.85
2018-09-03T06:50:57.188Z,6.10
2018-09-03T06:53:24.800Z,6.57
2018-09-03T06:55:52.351Z,6.47
2018-09-03T06:58:19.920Z,6.82
2018-09-03T07:00:47.436Z,6.47
2018-09-03T07:03:15.031Z,6.63
2018-09-03T07:05:42.587Z,7.80
2018-09-03T07:08:10.187Z,7.83
2018-09-03T07:10:37.723Z,7.10
2018-09-03T07:13:05.271Z,6.37
2018-09-03T07:15:32.846Z,6.60
2018-09-03T07:18:00.456Z,6.83
2018-09-03T07:20:28.012Z,8.00
2018-09-03T07:22:55.582Z,7.83
2018-09-03T07:25:23.135Z,7.90
2018-09-03T07:27:50.886Z,7.53
2018-09-03T07:30:18.451Z,8.60
2018-09-03T07:32:46.018Z,7.07
2018-09-03T07:35:13.679Z,7.25
2018-09-03T07:37:41.333Z,6.90
2018-09-03T07:40:08.942Z,7.20
2018-09-03T07:42:36.567Z,8.23
2018-09-03T07:45:04.284Z,7.50
2018-09-03T07:47:31.832Z,8.23
2018-09-03T07:49:59.393Z,6.97
2018-09-03T07:52:26.935Z,7.83
2018-09-03T07:54:54.509Z,7.67
2018-09-03T07:57:22.299Z,7.40
2018-09-03T07:59:50.236Z,6.67
2018-09-03T08:02:17.859Z,7.23
2018-09-03T08:04:45.699Z,7.00
2018-09-03T08:07:13.476Z,7.23
2018-09-03T08:09:41.309Z,7.43
2018-09-03T08:12:08.969Z,6.93
2018-09-03T08:14:36.644Z,6.67
2018-09-03T08:17:04.450Z,7.83
2018-09-03T08:19:32.226Z,6.77
2018-09-03T08:21:59.924Z,7.67
2018-09-03T08:24:27.588Z,7.93
2018-09-03T08:26:55.143Z,8.27
2018-09-03T08:29:22.845Z,8.63
2018-09-03T08:31:50.417Z,7.77
2018-09-03T08:34:18.062Z,7.90
2018-09-03T08:36:45.643Z,8.63
2018-09-03T08:39:13.459Z,9.50
2018-09-03T08:41:41.778Z,8.07
2018-09-03T08:44:09.639Z,8.40
2018-09-03T08:46:37.647Z,8.50
2018-09-03T08:49:05.540Z,8.60
2018-09-03T08:51:33.283Z,8.40
2018-09-03T08:54:01.896Z,8.63
2018-09-03T08:56:29.657Z,8.85
2018-09-03T08:58:57.287Z,8.20
2018-09-03T09:01:25.282Z,8.03
2018-09-03T09:03:52.882Z,8.57
2018-09-03T09:06:20.784Z,9.10
2018-09-03T09:08:48.637Z,9.17
2018-09-03T09:11:16.401Z,9.60
2018-09-03T09:13:44.544Z,9.07
2018-09-03T09:16:13.064Z,8.70
2018-09-03T09:18:40.817Z,8.97
2018-09-03T09:21:08.465Z,8.10
2018-09-03T09:23:36.782Z,8.97
2018-09-03T09:26:04.368Z,9.00
2018-09-03T09:28:32.125Z,9.43
2018-09-03T09:30:59.934Z,9.97
2018-09-03T09:33:27.880Z,9.90
2018-09-03T09:35:55.722Z,9.07
2018-09-03T09:38:25.441Z,9.57
2018-09-03T09:40:53.188Z,9.87
2018-09-03T09:43:21.928Z,9.70
2018-09-03T09:45:49.730Z,9.80
2018-09-03T09:48:17.409Z,9.48
2018-09-03T09:50:46.348Z,10.13
2018-09-03T09:53:14.063Z,9.23
2018-09-03T09:55:41.715Z,10.17
2018-09-03T09:58:09.602Z,9.93
2018-09-03T10:00:37.316Z,9.93
2018-09-03T10:03:04.973Z,10.23
2018-09-03T10:05:32.636Z,9.90
2018-09-03T10:08:00.361Z,10.33
2018-09-03T10:10:28.198Z,11.12
2018-09-03T10:12:55.881Z,10.85
2018-09-03T10:15:23.533Z,9.17
2018-09-03T10:17:51.291Z,9.80
2018-09-03T10:20:19.029Z,8.87
2018-09-03T10:22:46.709Z,9.25
2018-09-03T10:25:17.849Z,9.20
2018-09-03T10:27:45.537Z,8.57
2018-09-03T10:30:13.051Z,8.67
2018-09-03T10:32:40.616Z,8.53
2018-09-03T10:35:08.190Z,8.97
2018-09-03T10:37:35.770Z,8.97
2018-09-03T10:40:03.372Z,9.70
2018-09-03T10:42:31.140Z,8.73
2018-09-03T10:44:58.773Z,9.27
2018-09-03T10:47:26.506Z,10.40
2018-09-03T10:49:54.279Z,9.43
2018-09-03T10:52:22.515Z,9.32
2018-09-03T10:54:50.465Z,9.47
2018-09-03T10:57:18.184Z,9.07
2018-09-03T10:59:46.854Z,8.10
2018-09-03T11:02:14.696Z,8.47
2018-09-03T11:04:42.371Z,7.73
2018-09-03T11:07:10.175Z,8.00
2018-09-03T11:09:38.045Z,8.10
2018-09-03T11:12:07.031Z,7.67
2018-09-03T11:14:34.547Z,8.17
2018-09-03T11:17:02.137Z,7.77
2018-09-03T11:19:29.696Z,8.38
2018-09-03T11:22:01.895Z,8.60
2018-09-03T11:24:29.461Z,8.77
2018-09-03T11:26:57.010Z,8.90
2018-09-03T11:29:24.672Z,9.20
2018-09-03T11:31:53.252Z,9.23
2018-09-03T11:34:20.922Z,9.43
2018-09-03T11:36:48.464Z,10.47
2018-09-03T11:39:16.007Z,9.87
2018-09-03T11:41:43.574Z,10.13
2018-09-03T11:44:11.092Z,10.73
2018-09-03T11:46:38.671Z,10.10
2018-09-03T11:49:10.651Z,10.63
2018-09-03T11:51:39.418Z,10.57
2018-09-03T11:54:06.954Z,10.63
2018-09-03T11:56:38.032Z,10.73
2018-09-03T11:59:05.747Z,10.80
2018-09-03T12:01:33.679Z,12.00
2018-09-03T12:04:01.252Z,12.37
2018-09-03T12:06:32.680Z,11.43
2018-09-03T12:09:02.516Z,10.70
2018-09-03T12:11:30.121Z,10.83
2018-09-03T12:14:02.621Z,10.40
2018-09-03T12:16:30.254Z,10.77
2018-09-03T12:19:01.114Z,10.77
2018-09-03T12:21:34.367Z,11.60
2018-09-03T12:24:01.935Z,11.03
2018-09-03T12:26:31.526Z,11.05
2018-09-03T12:29:00.141Z,12.03
2018-09-03T12:31:28.160Z,12.75
2018-09-03T12:33:57.813Z,12.03
2018-09-03T12:36:25.410Z,11.73
2018-09-03T12:38:52.946Z,12.07
2018-09-03T12:41:20.482Z,12.47
2018-09-03T12:43:48.056Z,11.70
2018-09-03T12:46:16.711Z,11.90
2018-09-03T12:48:48.078Z,11.80
2018-09-03T12:51:15.671Z,13.00
2018-09-03T12:53:44.290Z,12.70
2018-09-03T12:56:11.879Z,13.83
2018-09-03T12:58:39.580Z,15.63
2018-09-03T13:01:07.203Z,15.63
2018-09-03T13:03:38.459Z,13.73
2018-09-03T13:06:06.108Z,13.57
2018-09-03T13:08:33.621Z,14.37
2018-09-03T13:11:01.196Z,14.60
2018-09-03T13:13:28.752Z,14.63
2018-09-03T13:15:59.428Z,15.83
2018-09-03T13:18:26.969Z,15.87
2018-09-03T13:20:54.525Z,15.43
2018-09-03T13:23:22.129Z,15.23
2018-09-03T13:25:49.687Z,15.17
2018-09-03T13:28:17.306Z,13.95
2018-09-03T13:30:46.971Z,14.43
2018-09-03T13:33:14.525Z,15.93
2018-09-03T13:35:42.087Z,18.20
2018-09-03T13:38:09.637Z,15.97
2018-09-03T13:40:37.205Z,16.17
2018-09-03T13:43:04.779Z,15.97
2018-09-03T13:45:32.361Z,17.07
2018-09-03T13:47:59.896Z,16.57
2018-09-03T13:50:27.474Z,17.17
2018-09-03T13:52:55.011Z,16.93
2018-09-03T13:55:23.617Z,18.03
2018-09-03T13:57:53.262Z,17.10
2018-09-03T14:00:20.870Z,18.57
2018-09-03T14:02:48.456Z,17.57
2018-09-03T14:05:16.027Z,17.60
2018-09-03T14:07:43.568Z,17.07
2018-09-03T14:10:11.209Z,17.53
2018-09-03T14:12:38.712Z,18.23
2018-09-03T14:15:06.586Z,18.93
2018-09-03T14:17:34.190Z,19.27
2018-09-03T14:20:01.954Z,19.17
2018-09-03T14:22:29.673Z,18.27
2018-09-03T14:24:57.412Z,18.80
2018-09-03T14:27:25.009Z,18.67
2018-09-03T14:29:52.673Z,17.40
2018-09-03T14:32:20.435Z,18.35
2018-09-03T14:34:48.227Z,19.80
2018-09-03T14:37:15.769Z,18.27
2018-09-03T14:39:43.351Z,18.27
2018-09-03T14:42:10.895Z,18.70
2018-09-03T14:44:38.474Z,17.83
2018-09-03T14:47:07.053Z,18.77
2018-09-03T14:49:34.725Z,16.60
2018-09-03T14:52:02.229Z,16.80
2018-09-03T14:54:29.819Z,17.27
2018-09-03T14:56:57.424Z,17.33
2018-09-03T14:59:24.998Z,16.63
2018-09-03T15:01:53.636Z,16.83
2018-09-03T15:04:21.223Z,16.50
2018-09-03T15:06:48.769Z,17.43
2018-09-03T15:09:16.330Z,16.80
2018-09-03T15:11:44.084Z,16.73
2018-09-03T15:14:11.666Z,17.23
2018-09-03T15:16:39.217Z,17.07
2018-09-03T15:19:06.801Z,16.20
2018-09-03T15:21:34.332Z,16.37
2018-09-03T15:24:01.866Z,16.33
2018-09-03T15:26:29.439Z,16.77
2018-09-03T15:28:57.000Z,17.63
2018-09-03T15:31:24.548Z,16.93
2018-09-03T15:33:52.171Z,16.90
2018-09-03T15:36:19.858Z,16.73
2018-09-03T15:38:47.376Z,16.17
2018-09-03T15:41:15.169Z,17.80
2018-09-03T15:43:43.105Z,16.63
2018-09-03T15:46:10.960Z,16.90
2018-09-03T15:48:39.741Z,17.30
2018-09-03T15:51:08.181Z,16.47
2018-09-03T15:53:35.851Z,17.50
2018-09-03T15:56:04.052Z,16.90
2018-09-03T15:58:31.678Z,16.80
2018-09-03T16:00:59.272Z,17.23
2018-09-03T16:05:59.946Z,16.07
2018-09-03T16:08:27.525Z,17.30
2018-09-03T16:10:55.081Z,16.43
2018-09-03T16:13:22.650Z,17.57
2018-09-03T16:15:50.182Z,16.67
2018-09-03T16:18:17.943Z,16.17
2018-09-03T16:20:45.616Z,17.97
2018-09-03T16:23:13.299Z,16.50
2018-09-03T16:25:41.990Z,17.20
2018-09-03T16:28:09.571Z,17.50
2018-09-03T16:30:37.115Z,17.00
2018-09-03T16:33:04.691Z,16.20
2018-09-03T16:35:32.251Z,17.20
2018-09-03T16:38:01.767Z,16.83
2018-09-03T16:40:29.348Z,16.75
2018-09-03T16:42:57.361Z,17.43
2018-09-03T16:45:24.890Z,17.37
2018-09-03T16:47:54.529Z,17.93
2018-09-03T16:50:22.202Z,19.33
2018-09-03T16:52:49.746Z,20.17
2018-09-03T16:55:17.404Z,19.20
2018-09-03T16:57:44.991Z,19.83
2018-09-03T17:00:12.646Z,20.23
2018-09-03T17:02:40.191Z,19.37
2018-09-03T17:05:07.772Z,19.47
2018-09-03T17:07:35.415Z,18.63
2018-09-03T17:10:02.938Z,18.43
2018-09-03T17:12:30.460Z,19.65
2018-09-03T17:14:58.061Z,19.50
2018-09-03T17:17:25.627Z,18.57
2018-09-03T17:19:53.257Z,19.63
2018-09-03T17:22:20.857Z,18.10
2018-09-03T17:24:48.442Z,18.00
2018-09-03T17:27:15.991Z,19.07
2018-09-03T17:29:43.569Z,18.83
2018-09-03T17:32:11.083Z,18.47
2018-09-03T17:34:38.661Z,18.57
2018-09-03T17:37:06.221Z,19.30
2018-09-03T17:39:33.821Z,18.80
2018-09-03T17:42:01.365Z,19.47
2018-09-03T17:44:28.934Z,19.08
2018-09-03T17:46:56.501Z,17.57
2018-09-03T17:49:24.109Z,17.90
2018-09-03T17:51:51.641Z,18.50
2018-09-03T17:54:19.211Z,17.93
2018-09-03T17:56:46.895Z,18.37
2018-09-03T17:59:14.426Z,19.57
2018-09-03T18:01:41.982Z,18.30
2018-09-03T18:04:09.692Z,18.57
2018-09-03T18:06:38.256Z,19.17
2018-09-03T18:09:05.794Z,19.10
2018-09-03T18:11:33.358Z,18.77
2018-09-03T18:14:00.931Z,17.97
2018-09-03T18:16:31.514Z,17.92
2018-09-03T18:18:59.056Z,17.65
2018-09-03T18:21:26.635Z,17.70
2018-09-03T18:23:54.157Z,18.57
2018-09-03T18:26:21.751Z,19.90
2018-09-03T18:28:49.395Z,18.47
2018-09-03T18:31:19.035Z,17.97
2018-09-03T18:33:46.554Z,19.80
2018-09-03T18:36:14.126Z,19.80
2018-09-03T18:38:41.674Z,20.33
2018-09-03T18:41:11.299Z,18.40
2018-09-03T18:43:38.848Z,19.53
2018-09-03T18:46:06.435Z,19.47
2018-09-03T18:48:35.203Z,19.83
2018-09-03T18:51:06.669Z,20.83
2018-09-03T18:53:34.223Z,20.47
2018-09-03T18:56:01.800Z,20.57
2018-09-03T18:58:30.545Z,22.07
2018-09-03T19:00:58.098Z,20.23
2018-09-03T19:03:25.679Z,22.53
2018-09-03T19:05:53.230Z,21.13
2018-09-03T19:08:20.798Z,21.47
2018-09-03T19:10:48.377Z,21.63
2018-09-03T19:13:15.967Z,24.20
2018-09-03T19:15:43.511Z,24.57
2018-09-03T19:18:11.093Z,24.03
2018-09-03T19:20:38.648Z,24.27
2018-09-03T19:23:13.455Z,25.07
2018-09-03T19:25:41.046Z,24.73
2018-09-03T19:28:08.653Z,25.33
2018-09-03T19:30:36.204Z,24.47
2018-09-03T19:33:08.543Z,25.03
2018-09-03T19:35:36.126Z,24.60
2018-09-03T19:38:03.797Z,23.07
2018-09-03T19:40:31.357Z,22.57
2018-09-03T19:42:58.913Z,23.33
2018-09-03T19:45:26.618Z,23.00
2018-09-03T19:47:58.819Z,21.43
2018-09-03T19:50:26.565Z,21.73
2018-09-03T19:52:54.151Z,22.73
2018-09-03T19:55:21.681Z,20.80
2018-09-03T19:57:49.274Z,20.77
2018-09-03T20:00:16.834Z,19.40
2018-09-03T20:02:44.426Z,19.67
2018-09-03T20:05:11.952Z,19.30
2018-09-03T20:07:39.484Z,20.63
2018-09-03T20:10:07.059Z,20.43
2018-09-03T20:12:39.601Z,21.97
2018-09-03T20:15:07.129Z,21.43
2018-09-03T20:17:34.731Z,22.10
2018-09-03T20:20:02.416Z,21.33
2018-09-03T20:22:29.934Z,20.30
2018-09-03T20:24:57.496Z,19.77
2018-09-03T20:27:30.730Z,22.67
2018-09-03T20:29:58.289Z,23.43
2018-09-03T20:32:25.974Z,24.07
2018-09-03T20:34:53.574Z,22.93
2018-09-03T20:37:21.279Z,21.73
2018-09-03T20:39:48.885Z,20.50
2018-09-03T20:42:21.052Z,21.03
2018-09-03T20:44:48.932Z,21.67
2018-09-03T20:47:16.375Z,21.13
2018-09-03T20:49:43.964Z,21.03
2018-09-03T20:52:11.579Z,20.93
2018-09-03T20:54:40.177Z,20.77
2018-09-03T20:57:07.749Z,21.17
2018-09-03T20:59:35.356Z,20.03
2018-09-03T21:02:02.980Z,20.80
2018-09-03T21:04:30.669Z,19.57
2018-09-03T21:06:58.274Z,19.47
2018-09-03T21:09:25.873Z,20.07
2018-09-03T21:11:55.425Z,20.50
2018-09-03T21:14:25.064Z,20.30
2018-09-03T21:16:52.658Z,20.63
2018-09-03T21:19:20.321Z,21.07
2018-09-03T21:21:47.984Z,19.87
2018-09-03T21:24:15.781Z,21.03
2018-09-03T21:26:43.364Z,21.77
2018-09-03T21:29:16.888Z,22.27
2018-09-03T21:31:44.428Z,22.00
2018-09-03T21:34:15.780Z,22.87
2018-09-03T21:36:43.357Z,26.63
2018-09-03T21:39:16.997Z,26.67
2018-09-03T21:41:44.652Z,26.67
2018-09-03T21:44:13.046Z,26.95
2018-09-03T21:46:40.587Z,29.83
2018-09-03T21:49:08.176Z,27.83
2018-09-03T21:51:48.563Z,27.10
2018-09-03T21:54:16.210Z,28.77
2018-09-03T21:56:43.892Z,30.23
2018-09-03T21:59:15.286Z,30.87
2018-09-03T22:01:42.820Z,28.73
2018-09-03T22:04:10.378Z,29.27
2018-09-03T22:06:37.940Z,28.87
2018-09-03T22:09:09.443Z,29.10
2018-09-03T22:11:37.036Z,29.50
2018-09-03T22:14:04.605Z,30.07
2018-09-03T22:16:32.136Z,30.30
2018-09-03T22:19:01.684Z,31.17
2018-09-03T22:21:29.283Z,32.47
2018-09-03T22:23:56.835Z,32.47
2018-09-03T22:26:24.410Z,32.53
2018-09-03T22:28:51.954Z,33.03
2018-09-03T22:31:19.625Z,34.70
2018-09-03T22:33:49.275Z,34.73
2018-09-03T22:36:16.869Z,33.80
2018-09-03T22:38:44.400Z,33.73
2018-09-03T22:41:11.994Z,36.10
2018-09-03T22:43:39.547Z,35.47
2018-09-03T22:46:07.126Z,35.00
2018-09-03T22:48:34.676Z,34.00
2018-09-03T22:51:02.242Z,36.23
2018-09-03T22:53:29.825Z,37.27
2018-09-03T22:55:57.422Z,36.23
2018-09-03T22:58:24.953Z,35.42
2018-09-03T23:00:57.139Z,36.80
2018-09-03T23:03:24.673Z,36.77
2018-09-03T23:05:52.258Z,37.43
2018-09-03T23:08:19.825Z,37.20
2018-09-03T23:10:47.413Z,37.67
2018-09-03T23:13:14.960Z,37.27
2018-09-03T23:15:42.546Z,38.63
2018-09-03T23:18:12.048Z,40.40
2018-09-03T23:20:39.567Z,38.53
2018-09-03T23:23:07.159Z,38.60
2018-09-03T23:25:34.701Z,39.57
2018-09-03T23:28:02.286Z,38.70
2018-09-03T23:30:29.803Z,38.88
2018-09-03T23:32:57.364Z,39.63
2018-09-03T23:35:24.883Z,38.50
2018-09-03T23:37:52.457Z,35.23
2018-09-03T23:40:20.187Z,35.47
2018-09-03T23:42:47.775Z,34.47
2018-09-03T23:45:15.366Z,35.03
2018-09-03T23:47:42.915Z,36.17
2018-09-03T23:50:14.007Z,33.40
2018-09-03T23:52:41.592Z,35.83
2018-09-03T23:55:09.115Z,36.83
2018-09-03T23:57:36.673Z,36.30
